Time;durP1;ratioP1;P1;durP2;ratioP2;P2;SDS_P1;SDS_P2;PMS_P1;PMS_P2;Temp;Humidity;BMP_temperature;BMP_pressure;BME280_temperature;BME280_humidity;BME280_pressure;Samples;Min_cycle;Max_cycle;Signal;HPM_P1;HPM_P2
2024/03/09 00:00:58;;;;;;;39.07;20.77;;;;;;;2.38;92.31;100312.34;5052494;28;20245;-79
2024/03/09 00:03:31;;;;;;;40.00;20.17;;;;;;;2.37;92.22;100306.22;5053934;28;20202;-80
2024/03/09 00:06:23;;;;;;;35.10;18.83;;;;;;;2.37;92.48;100310.63;5046121;28;20226;-80
2024/03/09 00:08:52;;;;;;;40.57;20.20;;;;;;;2.35;92.46;100307.19;4977919;28;22538;-79
2024/03/09 00:11:37;;;;;;;37.17;19.93;;;;;;;2.35;92.24;100309.81;5056740;28;20285;-81
2024/03/09 00:14:05;;;;;;;37.63;20.50;;;;;;;2.32;92.17;100315.22;5048612;28;20232;-80
2024/03/09 00:16:36;;;;;;;35.23;19.43;;;;;;;2.32;92.86;100308.19;5052320;28;20260;-79
2024/03/09 00:19:03;;;;;;;38.73;19.57;;;;;;;2.33;92.14;100314.31;5055282;28;20194;-80
2024/03/09 00:21:41;;;;;;;37.53;20.30;;;;;;;2.32;92.33;100302.06;5056907;28;20265;-80
2024/03/09 00:24:14;;;;;;;41.73;20.47;;;;;;;2.31;92.38;100303.84;5047722;28;20231;-80
2024/03/09 00:26:43;;;;;;;41.40;21.50;;;;;;;2.32;92.44;100307.34;5052444;28;20221;-79
2024/03/09 00:29:12;;;;;;;42.63;20.60;;;;;;;2.29;92.60;100300.41;5055842;28;20205;-80
2024/03/09 00:31:46;;;;;;;40.20;21.50;;;;;;;2.29;92.78;100294.28;5050923;28;20237;-80
2024/03/09 00:34:19;;;;;;;38.50;20.97;;;;;;;2.27;93.04;100291.72;5050727;28;20209;-79
2024/03/09 00:36:46;;;;;;;38.60;21.13;;;;;;;2.28;93.29;100301.31;5053417;28;20225;-79
2024/03/09 00:39:27;;;;;;;37.73;21.17;;;;;;;2.26;93.57;100291.78;5051994;28;20209;-79
2024/03/09 00:41:59;;;;;;;39.97;20.10;;;;;;;2.27;92.99;100291.72;5047670;28;20666;-79
2024/03/09 00:44:39;;;;;;;38.10;20.50;;;;;;;2.25;93.63;100296.16;5060286;28;20212;-79
2024/03/09 00:47:07;;;;;;;41.37;21.83;;;;;;;2.23;93.31;100290.09;5054599;28;20226;-79
2024/03/09 00:49:34;;;;;;;42.40;21.30;;;;;;;2.21;94.03;100283.19;5052053;28;20197;-80
2024/03/09 00:52:05;;;;;;;44.33;22.30;;;;;;;2.19;94.19;100285.84;5053039;28;20646;-79
2024/03/09 00:54:32;;;;;;;39.87;21.53;;;;;;;2.15;93.68;100289.50;5065070;28;20217;-79
2024/03/09 00:57:01;;;;;;;44.67;22.37;;;;;;;2.11;93.79;100279.16;5061054;28;20241;-80
2024/03/09 00:59:30;;;;;;;37.83;20.43;;;;;;;2.08;94.81;100273.09;5051490;28;20230;-79
2024/03/09 01:02:03;;;;;;;43.73;23.17;;;;;;;2.06;94.43;100276.69;5046457;28;20228;-80
2024/03/09 01:05:07;;;;;;;43.40;22.03;;;;;;;2.01;94.90;100266.34;5064565;28;20197;-80
2024/03/09 01:07:50;;;;;;;45.13;21.77;;;;;;;1.99;95.02;100268.16;5060232;28;20220;-79
2024/03/09 01:10:20;;;;;;;42.53;22.20;;;;;;;1.97;95.11;100262.09;5048885;28;20198;-80
2024/03/09 01:13:08;;;;;;;44.53;22.23;;;;;;;1.94;95.62;100256.97;5053932;28;20224;-79
2024/03/09 01:15:41;;;;;;;42.23;21.53;;;;;;;1.92;95.69;100260.56;5053136;28;20214;-79
2024/03/09 01:18:07;;;;;;;44.27;22.73;;;;;;;1.88;95.56;100254.53;5053614;28;20263;-80
2024/03/09 01:20:38;;;;;;;40.27;23.07;;;;;;;1.85;95.47;100253.78;5046231;28;20236;-80
2024/03/09 01:23:05;;;;;;;47.20;22.43;;;;;;;1.82;96.36;100253.88;5051511;28;20210;-80
2024/03/09 01:25:58;;;;;;;44.50;22.97;;;;;;;1.80;96.00;100253.94;5046935;28;20642;-80
2024/03/09 01:28:25;;;;;;;43.30;22.40;;;;;;;1.79;96.87;100246.13;5054998;28;20232;-81
2024/03/09 01:30:51;;;;;;;46.33;22.30;;;;;;;1.78;96.93;100245.28;5053793;28;20240;-80
2024/03/09 01:33:53;;;;;;;49.07;23.57;;;;;;;1.76;97.52;100239.22;5049351;28;20641;-82
2024/03/09 01:36:22;;;;;;;45.57;23.73;;;;;;;1.74;96.91;100241.91;5049360;28;20263;-80
2024/03/09 01:38:49;;;;;;;42.73;23.13;;;;;;;1.73;98.04;100241.94;5047632;28;20221;-80
2024/03/09 01:41:16;;;;;;;46.47;25.10;;;;;;;1.71;97.78;100230.63;5059189;28;20197;-80
2024/03/09 01:43:43;;;;;;;46.17;22.63;;;;;;;1.70;97.94;100226.28;5054090;28;20292;-80
2024/03/09 01:46:14;;;;;;;45.30;22.40;;;;;;;1.66;97.51;100229.91;5053071;28;20271;-81
2024/03/09 01:48:42;;;;;;;45.30;23.47;;;;;;;1.62;97.11;100217.81;5057722;28;20274;-80
2024/03/09 01:51:10;;;;;;;51.10;25.17;;;;;;;1.59;97.37;100207.44;5052360;28;20240;-79
2024/03/09 01:53:41;;;;;;;46.70;23.63;;;;;;;1.58;98.20;100210.97;5056062;28;20217;-79
2024/03/09 01:56:11;;;;;;;48.77;24.50;;;;;;;1.56;97.82;100212.78;5056436;28;20308;-81
2024/03/09 01:58:41;;;;;;;42.80;23.00;;;;;;;1.53;97.89;100208.50;5058010;28;20820;-79
2024/03/09 02:01:21;;;;;;;47.33;24.87;;;;;;;1.52;98.03;100200.66;5056506;28;20209;-79
2024/03/09 02:03:52;;;;;;;49.27;24.33;;;;;;;1.49;98.50;100200.75;5056699;28;20236;-81
2024/03/09 02:06:21;;;;;;;47.97;23.33;;;;;;;1.46;99.59;100204.34;5053682;28;20222;-79
2024/03/09 02:08:50;;;;;;;45.73;23.63;;;;;;;1.43;100.00;100190.50;5067264;28;20220;-82
2024/03/09 02:11:16;;;;;;;45.73;24.20;;;;;;;1.42;100.00;100194.03;5063996;28;20235;-79
2024/03/09 02:13:43;;;;;;;50.43;24.40;;;;;;;1.38;99.95;100188.88;5072791;28;20236;-80
2024/03/09 02:16:12;;;;;;;50.20;24.27;;;;;;;1.37;100.00;100187.16;5057624;28;20218;-79
2024/03/09 02:18:39;;;;;;;49.60;24.43;;;;;;;1.34;100.00;100187.25;5060722;28;20268;-80
2024/03/09 02:21:08;;;;;;;51.93;24.73;;;;;;;1.32;100.00;100178.56;5073396;28;20229;-79
2024/03/09 02:23:36;;;;;;;51.13;24.60;;;;;;;1.30;100.00;100177.75;5059668;28;20209;-78
2024/03/09 02:26:05;;;;;;;50.90;24.77;;;;;;;1.29;100.00;100167.31;5063293;28;20240;-79
2024/03/09 02:28:32;;;;;;;49.33;25.83;;;;;;;1.27;100.00;100161.25;5065481;28;20351;-79
2024/03/09 02:31:00;;;;;;;52.17;24.80;;;;;;;1.24;100.00;100159.63;5058154;28;20213;-78
2024/03/09 02:33:27;;;;;;;54.67;26.00;;;;;;;1.17;100.00;100155.47;5059414;28;20221;-78
2024/03/09 02:35:54;;;;;;;54.43;26.17;;;;;;;1.12;100.00;100154.75;5061953;28;20233;-79
2024/03/09 02:38:21;;;;;;;49.37;24.33;;;;;;;1.13;100.00;100156.47;5066591;28;20300;-78
2024/03/09 02:40:48;;;;;;;47.00;24.93;;;;;;;1.09;100.00;100146.97;5060840;28;20269;-78
2024/03/09 02:43:18;;;;;;;52.57;26.20;;;;;;;1.07;100.00;100145.34;5070531;28;20219;-78
2024/03/09 02:45:44;;;;;;;54.73;27.13;;;;;;;1.06;100.00;100139.25;5059925;28;20304;-79
2024/03/09 02:48:11;;;;;;;55.20;26.50;;;;;;;0.99;100.00;100141.19;5060399;28;20206;-79
2024/03/09 02:50:38;;;;;;;54.33;26.23;;;;;;;0.96;100.00;100145.66;5057468;28;20202;-79
2024/03/09 02:53:06;;;;;;;54.07;25.87;;;;;;;0.94;100.00;100135.22;5058915;28;20789;-79
2024/03/09 02:55:33;;;;;;;56.67;27.47;;;;;;;0.92;100.00;100144.03;5052944;28;20201;-79
2024/03/09 02:58:02;;;;;;;53.60;26.37;;;;;;;0.88;100.00;100134.59;5059038;28;20229;-79
2024/03/09 03:00:31;;;;;;;55.07;26.50;;;;;;;0.87;100.00;100136.34;5060482;28;20217;-79
2024/03/09 03:05:42;;;;;;;56.23;26.83;;;;;;;0.82;100.00;100132.16;5058850;28;20224;-79
2024/03/09 03:08:09;;;;;;;53.20;26.17;;;;;;;0.83;100.00;100128.63;5060255;28;20197;-79
2024/03/09 03:10:42;;;;;;;53.93;26.30;;;;;;;0.81;100.00;100128.66;5064355;28;20217;-81
2024/03/09 03:13:26;;;;;;;52.20;26.90;;;;;;;0.80;100.00;100121.72;5062445;28;20255;-81
2024/03/09 03:15:54;;;;;;;55.53;26.43;;;;;;;0.79;100.00;100124.38;5062824;28;20224;-81
2024/03/09 03:18:21;;;;;;;50.00;25.27;;;;;;;0.76;100.00;100122.72;5058476;28;20225;-79
2024/03/09 03:20:48;;;;;;;57.03;27.23;;;;;;;0.78;100.00;100120.03;5060996;28;20211;-81
2024/03/09 03:23:15;;;;;;;56.87;27.80;;;;;;;0.77;100.00;100116.56;5069780;28;20202;-81
2024/03/09 03:25:56;;;;;;;58.20;26.73;;;;;;;0.75;100.00;100120.13;5059412;28;20213;-81
2024/03/09 03:28:23;;;;;;;56.20;26.90;;;;;;;0.73;100.00;100116.69;5064181;28;20199;-81
2024/03/09 03:30:49;;;;;;;51.80;26.17;;;;;;;0.71;100.00;100118.53;5061068;28;20189;-78
2024/03/09 03:33:21;;;;;;;52.63;27.07;;;;;;;0.71;100.00;100126.41;5055246;28;20271;-81
2024/03/09 03:35:48;;;;;;;53.13;26.10;;;;;;;0.68;100.00;100119.50;5060143;28;20232;-79
2024/03/09 03:38:14;;;;;;;54.07;27.60;;;;;;;0.67;100.00;100125.63;5060546;28;20217;-81
2024/03/09 03:40:41;;;;;;;57.47;27.90;;;;;;;0.65;100.00;100119.56;5056558;28;20229;-81
2024/03/09 03:43:07;;;;;;;55.90;28.00;;;;;;;0.65;100.00;100123.06;5061377;28;20203;-81
2024/03/09 03:45:36;;;;;;;50.30;25.57;;;;;;;0.63;100.00;100114.38;5058489;28;20206;-81
2024/03/09 03:48:08;;;;;;;63.90;28.27;;;;;;;0.63;100.00;100122.25;5057734;28;20216;-78
2024/03/09 03:50:38;;;;;;;57.00;27.37;;;;;;;0.62;100.00;100130.16;5059750;28;20201;-81
2024/03/09 03:53:05;;;;;;;55.97;26.43;;;;;;;0.62;100.00;100122.28;5059603;28;20205;-81
2024/03/09 03:55:32;;;;;;;53.83;26.67;;;;;;;0.60;100.00;100114.47;5058801;28;20625;-78
2024/03/09 03:57:59;;;;;;;55.50;27.10;;;;;;;0.59;100.00;100111.91;5060461;28;20240;-81
2024/03/09 04:00:26;;;;;;;52.53;26.70;;;;;;;0.58;100.00;100105.81;5059046;28;20654;-79
2024/03/09 04:02:54;;;;;;;55.73;27.67;;;;;;;0.58;100.00;100108.41;5068337;28;20213;-79
2024/03/09 04:05:21;;;;;;;53.93;27.27;;;;;;;0.56;100.00;100105.00;5063753;28;20614;-79
2024/03/09 04:07:49;;;;;;;60.43;27.27;;;;;;;0.56;100.00;100109.38;5056346;28;20217;-81
2024/03/09 04:10:18;;;;;;;53.93;26.73;;;;;;;0.54;100.00;100100.69;5059650;28;20693;-80
2024/03/09 04:12:47;;;;;;;57.77;27.43;;;;;;;0.53;100.00;100102.50;5058287;28;20213;-80
2024/03/09 04:15:14;;;;;;;56.97;26.63;;;;;;;0.52;100.00;100092.91;5058521;28;20197;-81
2024/03/09 04:17:42;;;;;;;56.80;28.20;;;;;;;0.51;100.00;100096.44;5060526;28;20263;-79
2024/03/09 04:20:11;;;;;;;56.03;27.40;;;;;;;0.48;100.00;100091.28;5061650;28;20201;-80
2024/03/09 04:22:39;;;;;;;55.73;27.20;;;;;;;0.48;100.00;100096.53;5058834;28;20205;-79
2024/03/09 04:25:08;;;;;;;50.70;26.80;;;;;;;0.45;100.00;100096.63;5055513;28;20225;-81
2024/03/09 04:27:36;;;;;;;58.67;27.57;;;;;;;0.44;100.00;100094.03;5062571;28;20306;-82
2024/03/09 04:30:11;;;;;;;61.33;27.63;;;;;;;0.42;100.00;100096.69;5062537;28;20205;-81
2024/03/09 04:32:38;;;;;;;56.93;25.83;;;;;;;0.39;100.00;100096.78;5058005;28;20212;-80
2024/03/09 04:35:08;;;;;;;59.57;26.77;;;;;;;0.36;100.00;100096.88;5060249;28;20235;-79
2024/03/09 04:37:35;;;;;;;52.43;26.77;;;;;;;0.35;100.00;100087.34;5057858;28;21464;-79
2024/03/09 04:40:14;;;;;;;52.27;26.03;;;;;;;0.33;100.00;100092.63;5058593;28;20261;-79
2024/03/09 04:42:44;;;;;;;58.83;28.53;;;;;;;0.31;100.00;100083.09;5061604;28;20212;-79
2024/03/09 04:45:11;;;;;;;59.47;27.40;;;;;;;0.30;100.00;100079.63;5060846;28;20243;-79
2024/03/09 04:47:38;;;;;;;58.67;27.90;;;;;;;0.29;100.00;100082.28;5058258;28;20942;-79
2024/03/09 04:50:08;;;;;;;61.00;27.83;;;;;;;0.29;100.00;100082.28;5060682;28;20268;-79
2024/03/09 04:52:35;;;;;;;55.73;26.63;;;;;;;0.27;100.00;100069.22;5058193;28;20220;-80
2024/03/09 04:55:01;;;;;;;58.20;28.07;;;;;;;0.27;100.00;100082.31;5054329;28;20258;-80
2024/03/09 04:57:34;;;;;;;56.37;27.80;;;;;;;0.27;100.00;100071.00;5058123;28;20221;-80
2024/03/09 05:00:03;;;;;;;51.90;26.47;;;;;;;0.25;100.00;100072.78;5060142;28;20459;-80
2024/03/09 05:02:29;;;;;;;58.47;27.07;;;;;;;0.24;100.00;100076.31;5057142;28;20220;-79
2024/03/09 05:04:58;;;;;;;60.33;28.57;;;;;;;0.24;100.00;100069.31;5058739;28;20664;-79
2024/03/09 05:07:25;;;;;;;57.10;27.37;;;;;;;0.22;100.00;100072.88;5054590;28;20240;-79
2024/03/09 05:09:52;;;;;;;59.37;27.73;;;;;;;0.20;100.00;100070.31;5059739;28;20233;-79
2024/03/09 05:12:18;;;;;;;62.33;28.37;;;;;;;0.21;100.00;100066.78;5056011;28;20201;-80
2024/03/09 05:14:45;;;;;;;62.30;28.37;;;;;;;0.22;100.00;100070.25;5058083;28;20844;-79
2024/03/09 05:17:14;;;;;;;58.37;27.47;;;;;;;0.20;100.00;100058.97;5057100;28;20276;-79
2024/03/09 05:19:40;;;;;;;59.97;29.07;;;;;;;0.17;100.00;100059.94;5056717;28;20232;-79
2024/03/09 05:22:07;;;;;;;61.27;27.53;;;;;;;0.18;100.00;100064.25;5062192;28;20205;-79
2024/03/09 05:24:34;;;;;;;56.90;27.60;;;;;;;0.19;100.00;100057.25;5051295;28;20197;-79
2024/03/09 05:27:01;;;;;;;59.33;27.27;;;;;;;0.16;100.00;100053.00;5057083;28;20260;-79
2024/03/09 05:29:27;;;;;;;56.70;27.57;;;;;;;0.14;100.00;100053.94;5053335;28;20426;-79
2024/03/09 05:31:54;;;;;;;54.37;26.53;;;;;;;0.11;100.00;100054.03;5054525;28;20237;-80
2024/03/09 05:34:22;;;;;;;54.23;27.37;;;;;;;0.09;100.00;100054.06;5055006;28;20214;-80
2024/03/09 05:36:49;;;;;;;60.30;28.97;;;;;;;0.08;100.00;100057.59;5053419;28;20229;-80
2024/03/09 05:39:17;;;;;;;56.23;27.90;;;;;;;0.08;100.00;100049.75;5064069;28;20221;-79
2024/03/09 05:41:46;;;;;;;59.47;28.60;;;;;;;0.08;100.00;100054.97;5059310;28;20403;-79
2024/03/09 05:44:13;;;;;;;58.40;27.47;;;;;;;0.06;100.00;100048.91;5055599;28;20678;-79
2024/03/09 05:46:39;;;;;;;61.30;28.10;;;;;;;0.05;100.00;100052.44;5057782;28;20263;-80
2024/03/09 05:49:08;;;;;;;60.50;27.27;;;;;;;0.05;100.00;100054.19;5060600;28;21888;-79
2024/03/09 05:51:37;;;;;;;57.70;27.00;;;;;;;0.04;100.00;100049.88;5054511;28;20296;-79
2024/03/09 05:54:05;;;;;;;58.40;27.53;;;;;;;0.03;100.00;100048.16;5056090;28;20235;-80
2024/03/09 05:56:32;;;;;;;54.37;27.60;;;;;;;0.03;100.00;100050.78;5054944;28;20216;-80
2024/03/09 05:58:59;;;;;;;49.67;25.83;;;;;;;0.02;100.00;100049.06;5056627;28;20264;-81
2024/03/09 06:01:27;;;;;;;60.27;26.70;;;;;;;0.02;100.00;100049.06;5053563;28;20268;-79
2024/03/09 06:03:53;;;;;;;54.17;26.20;;;;;;;0.00;100.00;100044.72;5047969;28;20263;-80
2024/03/09 06:06:20;;;;;;;59.63;26.77;;;;;;;-0.01;100.00;100040.41;5048332;28;20221;-80
2024/03/09 06:08:48;;;;;;;54.03;27.43;;;;;;;-0.02;100.00;100046.56;5049110;28;20676;-82
2024/03/09 06:11:17;;;;;;;64.50;28.03;;;;;;;-0.03;100.00;100039.59;5047162;28;20672;-81
2024/03/09 06:13:48;;;;;;;60.03;28.07;;;;;;;-0.03;100.00;100041.38;5053755;28;20247;-82
2024/03/09 06:16:18;;;;;;;58.30;27.23;;;;;;;-0.03;100.00;100036.97;5050923;28;20225;-82
2024/03/09 06:18:47;;;;;;;57.50;27.03;;;;;;;-0.03;100.00;100047.44;5053104;28;20690;-81
2024/03/09 06:21:17;;;;;;;51.77;26.30;;;;;;;-0.03;100.00;100047.44;5053993;28;20201;-82
2024/03/09 06:23:44;;;;;;;51.40;25.87;;;;;;;-0.02;100.00;100046.56;5056752;28;20237;-82
2024/03/09 06:26:13;;;;;;;57.07;27.47;;;;;;;0.00;100.00;100049.13;5052975;28;20264;-82
2024/03/09 06:28:45;;;;;;;57.70;27.40;;;;;;;-0.01;100.00;100043.03;5056677;28;20554;-80
2024/03/09 06:31:31;;;;;;;57.00;26.00;;;;;;;-0.07;100.00;100040.59;5077017;28;20246;-79
2024/03/09 06:37:48;;;;;;;;;;;;;;;;;;;;;
2024/03/09 06:40:18;;;;;;;56.50;26.73;;;;;;;-0.11;100.00;100044.19;4905014;29;20301;-80
2024/03/09 06:45:51;;;;;;;;;;;;;;;;;;;;;
2024/03/09 06:48:24;;;;;;;59.83;26.97;;;;;;;-0.03;100.00;100041.38;5057307;28;20205;-80
2024/03/09 06:50:54;;;;;;;58.03;27.33;;;;;;;-0.04;100.00;100037.88;5056197;28;20205;-80
2024/03/09 06:53:43;;;;;;;61.27;28.80;;;;;;;-0.02;100.00;100041.31;5059240;28;20300;-79
2024/03/09 06:56:14;;;;;;;58.37;27.33;;;;;;;0.03;100.00;100042.91;5068503;28;20251;-79
2024/03/09 06:58:44;;;;;;;57.70;27.33;;;;;;;0.03;100.00;100043.78;5058737;28;20747;-79
2024/03/09 07:01:19;;;;;;;64.60;28.00;;;;;;;0.07;100.00;100039.31;5060940;28;20201;-79
2024/03/09 07:04:01;;;;;;;63.30;27.83;;;;;;;0.09;100.00;100040.97;5063494;28;20208;-79
2024/03/09 07:06:34;;;;;;;61.87;27.47;;;;;;;0.14;100.00;100041.72;5065015;28;20229;-79
2024/03/09 07:09:29;;;;;;;54.17;26.67;;;;;;;0.21;100.00;100037.13;5058476;28;20201;-80
2024/03/09 07:12:02;;;;;;;62.20;27.43;;;;;;;0.26;100.00;100048.31;5054492;28;20209;-79
2024/03/09 07:14:36;;;;;;;75.13;29.43;;;;;;;0.33;100.00;100044.63;5057599;28;20641;-80
2024/03/09 07:17:15;;;;;;;;;;;;;;;;;;;;;
2024/03/09 07:19:59;;;;;;;64.83;28.80;;;;;;;0.48;100.00;100049.38;5055413;28;20228;-78
2024/03/09 07:22:31;;;;;;;63.60;27.07;;;;;;;0.51;100.00;100043.19;5060414;28;20197;-78
2024/03/09 07:25:16;;;;;;;64.77;26.90;;;;;;;0.55;100.00;100039.53;5059577;28;20210;-78
2024/03/09 07:27:48;;;;;;;61.60;26.43;;;;;;;0.57;100.00;100038.56;5056292;28;20233;-79
2024/03/09 07:30:23;;;;;;;62.60;28.30;;;;;;;0.62;100.00;100034.06;5049121;28;20277;-78
2024/03/09 07:32:56;;;;;;;59.00;27.67;;;;;;;0.68;100.00;100031.25;5056669;28;20217;-79
2024/03/09 07:38:21;;;;;;;57.30;26.50;;;;;;;0.80;100.00;100021.25;5031830;28;20359;-78
2024/03/09 07:40:58;;;;;;;;;;;;;;;;;;;;;
2024/03/09 07:43:31;;;;;;;55.33;26.70;;;;;;;0.95;100.00;100021.59;5054154;28;20280;-78
2024/03/09 07:46:05;;;;;;;60.03;27.73;;;;;;;1.02;100.00;100017.84;5054016;28;20775;-79
2024/03/09 07:48:38;;;;;;;55.77;27.00;;;;;;;1.11;100.00;100024.53;5060353;28;20201;-78
2024/03/09 07:51:11;;;;;;;57.60;25.90;;;;;;;1.20;100.00;100018.13;5048542;28;20229;-81
2024/03/09 07:53:41;;;;;;;51.80;24.07;;;;;;;1.28;100.00;100009.06;5063428;28;20208;-83
2024/03/09 07:56:10;;;;;;;54.90;25.37;;;;;;;1.38;100.00;100009.59;5056861;28;20225;-82
2024/03/09 07:58:40;;;;;;;57.27;28.17;;;;;;;1.48;100.00;100005.72;5052465;28;20237;-82
2024/03/09 08:01:08;;;;;;;53.20;25.87;;;;;;;1.58;100.00;100006.25;5054299;28;20256;-82
2024/03/09 08:03:34;;;;;;;53.10;25.33;;;;;;;1.69;100.00;100004.94;5051433;28;20217;-81
2024/03/09 08:06:03;;;;;;;50.63;25.97;;;;;;;1.78;100.00;99995.00;5052511;28;20220;-81
2024/03/09 08:08:31;;;;;;;53.83;24.87;;;;;;;1.88;100.00;99997.22;5057637;28;20206;-82
2024/03/09 08:10:58;;;;;;;49.87;23.67;;;;;;;1.98;100.00;99990.69;5055801;28;20670;-82
2024/03/09 08:13:26;;;;;;;43.57;23.57;;;;;;;2.04;100.00;99993.09;5049459;28;20209;-81
2024/03/09 08:15:54;;;;;;;42.00;23.00;;;;;;;2.13;100.00;99991.03;5053871;28;20241;-81
2024/03/09 08:18:22;;;;;;;52.67;24.23;;;;;;;2.22;100.00;99988.88;5053689;28;20197;-81
2024/03/09 08:20:49;;;;;;;43.73;22.67;;;;;;;2.31;100.00;99991.16;5049097;28;20230;-80
2024/03/09 08:23:19;;;;;;;47.27;22.90;;;;;;;2.43;100.00;99984.53;5045757;28;20210;-78
2024/03/09 08:25:56;;;;;;;;;;;;;;;;;;;;;
2024/03/09 08:31:44;;;;;;;44.03;22.40;;;;;;;2.70;100.00;99964.97;5040217;28;20547;-79
2024/03/09 08:37:21;;;;;;;42.37;20.00;;;;;;;2.86;100.00;99964.34;4995975;28;20234;-80
2024/03/09 08:39:54;;;;;;;38.40;20.93;;;;;;;2.97;100.00;99956.84;5054772;28;20727;-79
2024/03/09 08:42:36;;;;;;;40.20;20.50;;;;;;;3.05;100.00;99959.97;5055504;28;20202;-79
2024/03/09 08:45:05;;;;;;;38.90;19.50;;;;;;;3.16;100.00;99960.41;5053430;28;20209;-80
2024/03/09 08:47:52;;;;;;;;;;;;;;;;;;;;;
2024/03/09 08:50:45;;;;;;;43.00;20.77;;;;;;;3.38;100.00;99958.53;5046790;28;20285;-80
2024/03/09 08:56:28;;;;;;;42.67;21.33;;;;;;;3.64;100.00;99953.84;5047475;28;20718;-80
2024/03/09 09:02:20;;;;;;;;;;;;;;;;;;;;;
2024/03/09 09:07:55;;;;;;;34.63;17.73;;;;;;;3.93;98.23;99948.09;5048413;28;20310;-80
2024/03/09 09:10:25;;;;;;;34.57;18.20;;;;;;;4.02;99.43;99949.41;5054816;28;20217;-80
2024/03/09 09:26:04;;;;;;;29.13;17.23;;;;;;;4.55;94.63;99915.16;4972098;28;20216;-79
2024/03/09 09:28:39;;;;;;;30.13;17.30;;;;;;;4.62;94.30;99910.44;4973065;28;20232;-80
2024/03/09 09:31:06;;;;;;;28.70;15.67;;;;;;;4.75;93.17;99914.16;4999567;28;20206;-80
2024/03/09 09:45:51;;;;;;;31.50;17.70;;;;;;;5.22;89.94;99916.94;4900471;28;20263;-81
2024/03/09 09:48:18;;;;;;;27.50;16.97;;;;;;;5.36;90.98;99906.53;5039959;28;20209;-80
2024/03/09 09:50:46;;;;;;;29.60;17.80;;;;;;;5.47;91.00;99896.22;5056737;28;20288;-80
2024/03/09 09:53:17;;;;;;;28.47;16.93;;;;;;;5.68;90.64;99896.84;5051849;28;20210;-80
2024/03/09 09:55:51;;;;;;;31.17;16.43;;;;;;;5.74;86.34;99904.41;5047227;28;20292;-80
2024/03/09 09:58:19;;;;;;;24.33;14.60;;;;;;;5.81;87.28;99905.78;5051974;28;20202;-80
2024/03/09 10:00:45;;;;;;;34.27;17.10;;;;;;;5.85;85.99;99901.19;5052571;28;20233;-81
2024/03/09 10:03:12;;;;;;;30.37;16.93;;;;;;;5.96;86.23;99893.53;5057419;28;20217;-81
2024/03/09 10:05:42;;;;;;;24.47;16.37;;;;;;;6.09;86.41;99896.34;5057261;28;20236;-80
2024/03/09 10:08:09;;;;;;;25.77;17.23;;;;;;;6.19;85.07;99892.22;5052637;28;20201;-78
2024/03/09 10:10:41;;;;;;;24.50;16.17;;;;;;;6.29;84.19;99898.69;5045970;28;20635;-82
2024/03/09 10:13:08;;;;;;;28.10;16.40;;;;;;;6.36;84.11;99896.53;5050743;28;20205;-81
2024/03/09 10:15:40;;;;;;;25.90;16.43;;;;;;;6.37;82.98;99893.81;5048273;28;20213;-82
2024/03/09 10:18:07;;;;;;;25.83;15.23;;;;;;;6.45;83.11;99891.56;5049545;28;20206;-80
2024/03/09 10:20:37;;;;;;;25.37;16.13;;;;;;;6.53;82.13;99884.03;5049751;28;20233;-80
2024/03/09 10:23:08;;;;;;;25.40;16.90;;;;;;;6.55;81.87;99884.81;5051994;28;20221;-79
2024/03/09 10:25:36;;;;;;;22.73;14.73;;;;;;;6.64;82.24;99880.75;5054510;28;20209;-82
2024/03/09 10:28:04;;;;;;;26.00;16.43;;;;;;;6.75;82.39;99883.63;5052053;28;20233;-81
2024/03/09 10:30:30;;;;;;;25.93;16.77;;;;;;;6.86;81.32;99882.97;5053969;28;20202;-82
2024/03/09 10:32:59;;;;;;;22.37;15.87;;;;;;;6.94;80.79;99891.31;5051174;28;20205;-82
2024/03/09 10:35:26;;;;;;;25.00;15.83;;;;;;;7.01;80.17;99886.47;5051992;28;20206;-80
2024/03/09 10:37:55;;;;;;;21.00;15.10;;;;;;;7.06;80.41;99876.47;5052525;28;20312;-80
2024/03/09 10:40:23;;;;;;;26.47;16.33;;;;;;;7.16;80.54;99874.97;5048747;28;20217;-82
2024/03/09 10:42:51;;;;;;;25.90;16.37;;;;;;;7.23;78.79;99873.63;5047695;28;20221;-82
2024/03/09 10:45:19;;;;;;;24.47;15.40;;;;;;;7.28;78.75;99872.41;5050690;28;20236;-81
2024/03/09 10:47:49;;;;;;;24.97;15.87;;;;;;;7.34;77.87;99870.34;5052411;28;20225;-82
2024/03/09 10:50:24;;;;;;;26.40;15.43;;;;;;;7.38;77.35;99870.03;5050207;28;20197;-82
2024/03/09 10:53:08;;;;;;;24.10;16.27;;;;;;;7.45;77.50;99868.69;5050673;28;20279;-81
2024/03/09 10:55:45;;;;;;;23.73;15.67;;;;;;;7.50;77.14;99869.28;5050624;28;20212;-79
2024/03/09 10:58:15;;;;;;;21.23;15.90;;;;;;;7.59;76.95;99858.06;5050888;28;20232;-81
2024/03/09 11:00:42;;;;;;;25.03;16.03;;;;;;;7.65;75.90;99849.75;5051065;28;20720;-82
2024/03/09 11:03:11;;;;;;;24.23;16.17;;;;;;;7.64;74.82;99852.50;5053238;28;20213;-82
2024/03/09 11:05:39;;;;;;;25.53;16.10;;;;;;;7.63;74.58;99856.09;5051590;28;20239;-81
2024/03/09 11:08:09;;;;;;;22.00;15.67;;;;;;;7.65;75.93;99841.78;5052534;28;20628;-81
2024/03/09 11:10:40;;;;;;;25.13;16.70;;;;;;;7.73;76.63;99851.03;5050414;28;20218;-81
2024/03/09 11:13:07;;;;;;;21.57;15.70;;;;;;;7.74;75.52;99845.63;5051058;28;20295;-81
2024/03/09 11:15:37;;;;;;;23.67;15.43;;;;;;;7.80;75.58;99844.41;5052488;28;20229;-82
2024/03/09 11:18:07;;;;;;;24.53;16.03;;;;;;;7.85;75.54;99831.72;5052882;28;20208;-81
2024/03/09 11:20:36;;;;;;;22.57;15.77;;;;;;;7.84;75.51;99824.72;5053098;28;20257;-81
2024/03/09 11:23:04;;;;;;;25.53;15.97;;;;;;;7.85;75.54;99829.91;5052976;28;20202;-82
2024/03/09 11:25:48;;;;;;;22.40;16.07;;;;;;;7.92;75.05;99825.03;5055492;28;20271;-82
2024/03/09 11:28:14;;;;;;;23.50;14.80;;;;;;;7.96;74.90;99824.75;5050429;28;20208;-81
2024/03/09 11:31:10;;;;;;;23.67;15.77;;;;;;;7.92;73.58;99825.03;5053661;28;20198;-83
2024/03/09 11:33:48;;;;;;;22.70;14.93;;;;;;;7.90;73.86;99805.72;5049842;28;20206;-81
2024/03/09 11:36:37;;;;;;;25.20;15.50;;;;;;;7.96;74.80;99806.19;5057575;28;20713;-81
2024/03/09 11:39:08;;;;;;;22.07;15.07;;;;;;;7.96;74.20;99795.56;5048747;28;20214;-80
2024/03/09 11:41:36;;;;;;;23.27;15.87;;;;;;;7.93;74.09;99795.78;5053431;28;20305;-81
2024/03/09 11:44:04;;;;;;;23.13;15.87;;;;;;;7.90;74.06;99795.97;5056004;28;20281;-82
2024/03/09 11:46:34;;;;;;;26.17;16.63;;;;;;;7.87;75.15;99796.19;5053636;28;20231;-82
2024/03/09 11:49:03;;;;;;;27.40;15.50;;;;;;;7.84;74.88;99795.53;5058028;28;20240;-81
2024/03/09 11:51:33;;;;;;;26.53;15.83;;;;;;;7.87;75.87;99780.28;5054809;28;20692;-81
2024/03/09 11:54:02;;;;;;;26.80;16.23;;;;;;;7.96;75.20;99776.16;5051799;28;20285;-79
2024/03/09 11:56:32;;;;;;;27.00;16.80;;;;;;;7.86;74.19;99775.94;5047827;28;20245;-82
2024/03/09 11:58:59;;;;;;;28.17;17.60;;;;;;;7.85;75.60;99776.03;5049148;28;20220;-81
2024/03/09 12:01:26;;;;;;;24.33;16.73;;;;;;;7.84;75.15;99774.34;5049201;28;20298;-82
2024/03/09 12:03:59;;;;;;;24.90;15.90;;;;;;;7.90;76.56;99766.81;5046464;28;20251;-80
2024/03/09 12:06:45;;;;;;;23.67;16.80;;;;;;;7.99;74.76;99763.56;5051260;28;20257;-82
2024/03/09 12:12:24;;;;;;;25.23;16.17;;;;;;;8.06;75.15;99763.97;5026895;28;20206;-83
2024/03/09 12:14:51;;;;;;;24.47;15.87;;;;;;;8.06;74.33;99760.50;5046990;28;20224;-82
2024/03/09 12:17:19;;;;;;;22.87;15.73;;;;;;;8.06;74.87;99765.81;5054258;28;20293;-81
2024/03/09 12:19:47;;;;;;;23.63;15.77;;;;;;;8.10;75.72;99761.97;5048582;28;20229;-82
2024/03/09 12:22:14;;;;;;;25.30;16.03;;;;;;;8.04;73.38;99762.41;5053447;28;20197;-82
2024/03/09 12:24:41;;;;;;;23.83;16.50;;;;;;;8.01;74.11;99755.50;5045695;28;20225;-81
2024/03/09 12:27:08;;;;;;;23.80;16.90;;;;;;;8.05;76.08;99761.47;5051111;28;20221;-81
2024/03/09 12:29:38;;;;;;;28.47;17.03;;;;;;;8.09;74.50;99761.13;5051360;28;20198;-83
2024/03/09 12:32:06;;;;;;;24.93;15.53;;;;;;;8.13;76.41;99754.69;5048878;28;20815;-82
2024/03/09 12:34:32;;;;;;;26.20;16.57;;;;;;;8.13;74.22;99754.69;5055442;28;20201;-81
2024/03/09 12:36:59;;;;;;;25.87;16.53;;;;;;;8.12;74.60;99750.31;5049000;28;20679;-82